sensor_id;sensor_type;location;lat;lon;timestamp;pressure;altitude;pressure_sealevel;temperature;humidity
19108;BME280;9686;48.832;9.126;2023-04-21T00:02:03;97860.06;;;5.91;nan
19108;BME280;9686;48.832;9.126;2023-04-21T00:04:28;97844.44;;;5.80;nan
19108;BME280;9686;48.832;9.126;2023-04-21T00:06:54;97850.44;;;5.74;nan
19108;BME280;9686;48.832;9.126;2023-04-21T00:09:20;97858.13;;;5.65;nan
19108;BME280;9686;48.832;9.126;2023-04-21T00:11:46;97856.50;;;5.78;nan
19108;BME280;9686;48.832;9.126;2023-04-21T00:14:11;97859.94;;;5.77;nan
19108;BME280;9686;48.832;9.126;2023-04-21T00:16:36;97853.09;;;5.85;nan
19108;BME280;9686;48.832;9.126;2023-04-21T00:19:02;97857.38;;;5.78;nan
19108;BME280;9686;48.832;9.126;2023-04-21T00:21:34;97844.50;;;5.89;nan
19108;BME280;9686;48.832;9.126;2023-04-21T00:23:59;97843.63;;;5.85;nan
19108;BME280;9686;48.832;9.126;2023-04-21T00:26:24;97843.59;;;5.81;nan
19108;BME280;9686;48.832;9.126;2023-04-21T00:28:50;97843.50;;;5.72;nan
19108;BME280;9686;48.832;9.126;2023-04-21T00:31:15;97847.81;;;5.71;nan
19108;BME280;9686;48.832;9.126;2023-04-21T00:33:40;97848.66;;;5.67;nan
19108;BME280;9686;48.832;9.126;2023-04-21T00:36:06;97852.22;;;5.81;nan
19108;BME280;9686;48.832;9.126;2023-04-21T00:38:31;97844.47;;;5.83;nan
19108;BME280;9686;48.832;9.126;2023-04-21T00:40:56;97842.75;;;5.85;nan
19108;BME280;9686;48.832;9.126;2023-04-21T00:43:21;97834.06;;;5.75;nan
19108;BME280;9686;48.832;9.126;2023-04-21T00:45:47;97840.91;;;5.69;nan
19108;BME280;9686;48.832;9.126;2023-04-21T00:48:12;97833.13;;;5.64;nan
19108;BME280;9686;48.832;9.126;2023-04-21T00:50:37;97835.72;;;5.69;nan
19108;BME280;9686;48.832;9.126;2023-04-21T00:53:03;97836.56;;;5.63;nan
19108;BME280;9686;48.832;9.126;2023-04-21T00:55:29;97834.84;;;5.64;nan
19108;BME280;9686;48.832;9.126;2023-04-21T00:57:55;97834.09;;;5.78;nan
19108;BME280;9686;48.832;9.126;2023-04-21T01:00:21;97835.06;;;5.93;nan
19108;BME280;9686;48.832;9.126;2023-04-21T01:02:46;97831.56;;;5.89;nan
19108;BME280;9686;48.832;9.126;2023-04-21T01:05:11;97830.75;;;5.92;nan
19108;BME280;9686;48.832;9.126;2023-04-21T01:07:37;97833.34;;;5.92;nan
19108;BME280;9686;48.832;9.126;2023-04-21T01:10:03;97840.22;;;5.93;nan
19108;BME280;9686;48.832;9.126;2023-04-21T01:12:29;97830.84;;;6.07;nan
19108;BME280;9686;48.832;9.126;2023-04-21T01:14:54;97824.75;;;5.97;nan
19108;BME280;9686;48.832;9.126;2023-04-21T01:17:20;97825.50;;;5.87;nan
19108;BME280;9686;48.832;9.126;2023-04-21T01:19:45;97818.63;;;5.87;nan
19108;BME280;9686;48.832;9.126;2023-04-21T01:22:12;97818.63;;;5.89;nan
19108;BME280;9686;48.832;9.126;2023-04-21T01:24:41;97815.22;;;5.92;nan
19108;BME280;9686;48.832;9.126;2023-04-21T01:27:15;97810.03;;;5.90;nan
19108;BME280;9686;48.832;9.126;2023-04-21T01:29:43;97816.03;;;5.86;nan
19108;BME280;9686;48.832;9.126;2023-04-21T01:32:13;97819.44;;;5.77;nan
19108;BME280;9686;48.832;9.126;2023-04-21T01:34:39;97815.09;;;5.73;nan
19108;BME280;9686;48.832;9.126;2023-04-21T01:37:17;97821.94;;;5.67;nan
19108;BME280;9686;48.832;9.126;2023-04-21T01:39:45;97819.41;;;5.73;nan
19108;BME280;9686;48.832;9.126;2023-04-21T01:42:11;97817.72;;;5.78;nan
19108;BME280;9686;48.832;9.126;2023-04-21T01:44:37;97816.72;;;5.61;nan
19108;BME280;9686;48.832;9.126;2023-04-21T01:47:03;97827.94;;;5.61;nan
19108;BME280;9686;48.832;9.126;2023-04-21T01:49:28;97825.41;;;5.70;nan
19108;BME280;9686;48.832;9.126;2023-04-21T01:51:54;97821.00;;;5.58;nan
19108;BME280;9686;48.832;9.126;2023-04-21T01:54:19;97820.13;;;5.55;nan
19108;BME280;9686;48.832;9.126;2023-04-21T01:56:44;97821.81;;;5.48;nan
19108;BME280;9686;48.832;9.126;2023-04-21T01:59:10;97831.19;;;5.39;nan
19108;BME280;9686;48.832;9.126;2023-04-21T02:01:35;97824.34;;;5.44;nan
19108;BME280;9686;48.832;9.126;2023-04-21T02:04:02;97825.28;;;5.52;nan
19108;BME280;9686;48.832;9.126;2023-04-21T02:06:28;97821.81;;;5.47;nan
19108;BME280;9686;48.832;9.126;2023-04-21T02:08:54;97827.69;;;5.32;nan
19108;BME280;9686;48.832;9.126;2023-04-21T02:11:19;97827.66;;;5.26;nan
19108;BME280;9686;48.832;9.126;2023-04-21T02:13:44;97827.56;;;5.18;nan
19108;BME280;9686;48.832;9.126;2023-04-21T02:16:10;97827.63;;;5.21;nan
19108;BME280;9686;48.832;9.126;2023-04-21T02:18:36;97835.31;;;5.17;nan
19108;BME280;9686;48.832;9.126;2023-04-21T02:21:04;97832.75;;;5.20;nan
19108;BME280;9686;48.832;9.126;2023-04-21T02:23:30;97826.69;;;5.18;nan
19108;BME280;9686;48.832;9.126;2023-04-21T02:25:55;97823.25;;;5.17;nan
19108;BME280;9686;48.832;9.126;2023-04-21T02:28:21;97822.25;;;5.02;nan
19108;BME280;9686;48.832;9.126;2023-04-21T02:30:46;97829.88;;;4.88;nan
19108;BME280;9686;48.832;9.126;2023-04-21T02:33:11;97819.66;;;4.97;nan
19108;BME280;9686;48.832;9.126;2023-04-21T02:35:36;97818.69;;;4.90;nan
19108;BME280;9686;48.832;9.126;2023-04-21T02:38:02;97821.16;;;4.77;nan
19108;BME280;9686;48.832;9.126;2023-04-21T02:40:33;97818.53;;;4.72;nan
19108;BME280;9686;48.832;9.126;2023-04-21T02:42:58;97824.63;;;4.80;nan
19108;BME280;9686;48.832;9.126;2023-04-21T02:45:24;97833.22;;;4.79;nan
19108;BME280;9686;48.832;9.126;2023-04-21T02:47:49;97839.34;;;4.89;nan
19108;BME280;9686;48.832;9.126;2023-04-21T02:50:15;97832.59;;;5.02;nan
19108;BME280;9686;48.832;9.126;2023-04-21T02:52:40;97827.41;;;5.00;nan
19108;BME280;9686;48.832;9.126;2023-04-21T02:55:06;97815.25;;;4.90;nan
19108;BME280;9686;48.832;9.126;2023-04-21T02:57:31;97827.13;;;4.70;nan
19108;BME280;9686;48.832;9.126;2023-04-21T02:59:56;97833.91;;;4.63;nan
19108;BME280;9686;48.832;9.126;2023-04-21T03:02:22;97843.38;;;4.65;nan
19108;BME280;9686;48.832;9.126;2023-04-21T03:04:47;97828.84;;;4.72;nan
19108;BME280;9686;48.832;9.126;2023-04-21T03:07:12;97816.78;;;4.70;nan
19108;BME280;9686;48.832;9.126;2023-04-21T03:09:39;97817.44;;;4.50;nan
19108;BME280;9686;48.832;9.126;2023-04-21T03:12:04;97825.91;;;4.42;nan
19108;BME280;9686;48.832;9.126;2023-04-21T03:14:30;97831.94;;;4.42;nan
19108;BME280;9686;48.832;9.126;2023-04-21T03:16:55;97829.41;;;4.44;nan
19108;BME280;9686;48.832;9.126;2023-04-21T03:19:20;97819.16;;;4.51;nan
19108;BME280;9686;48.832;9.126;2023-04-21T03:21:46;97804.59;;;4.58;nan
19108;BME280;9686;48.832;9.126;2023-04-21T03:24:11;97813.06;;;4.45;nan
19108;BME280;9686;48.832;9.126;2023-04-21T03:26:38;97799.38;;;4.52;nan
19108;BME280;9686;48.832;9.126;2023-04-21T03:29:03;97812.28;;;4.52;nan
19108;BME280;9686;48.832;9.126;2023-04-21T03:31:29;97809.59;;;4.43;nan
19108;BME280;9686;48.832;9.126;2023-04-21T03:33:54;97815.50;;;4.36;nan
19108;BME280;9686;48.832;9.126;2023-04-21T03:36:19;97820.72;;;4.40;nan
19108;BME280;9686;48.832;9.126;2023-04-21T03:38:45;97812.94;;;4.36;nan
19108;BME280;9686;48.832;9.126;2023-04-21T03:41:10;97820.81;;;4.45;nan
19108;BME280;9686;48.832;9.126;2023-04-21T03:43:35;97817.19;;;4.30;nan
19108;BME280;9686;48.832;9.126;2023-04-21T03:46:01;97818.13;;;4.37;nan
19108;BME280;9686;48.832;9.126;2023-04-21T03:48:27;97817.34;;;4.44;nan
19108;BME280;9686;48.832;9.126;2023-04-21T03:50:53;97813.09;;;4.48;nan
19108;BME280;9686;48.832;9.126;2023-04-21T03:53:18;97808.09;;;4.64;nan
19108;BME280;9686;48.832;9.126;2023-04-21T03:55:43;97816.69;;;4.62;nan
19108;BME280;9686;48.832;9.126;2023-04-21T03:58:13;97828.91;;;4.78;nan
19108;BME280;9686;48.832;9.126;2023-04-21T04:00:38;97822.13;;;4.91;nan
19108;BME280;9686;48.832;9.126;2023-04-21T04:03:03;97820.38;;;4.87;nan
19108;BME280;9686;48.832;9.126;2023-04-21T04:05:29;97821.16;;;4.78;nan
19108;BME280;9686;48.832;9.126;2023-04-21T04:07:54;97821.09;;;4.69;nan
19108;BME280;9686;48.832;9.126;2023-04-21T04:10:19;97826.16;;;4.63;nan
19108;BME280;9686;48.832;9.126;2023-04-21T04:12:45;97815.88;;;4.68;nan
19108;BME280;9686;48.832;9.126;2023-04-21T04:15:10;97816.72;;;4.67;nan
19108;BME280;9686;48.832;9.126;2023-04-21T04:17:35;97822.75;;;4.65;nan
19108;BME280;9686;48.832;9.126;2023-04-21T04:20:01;97814.22;;;4.71;nan
19108;BME280;9686;48.832;9.126;2023-04-21T04:22:28;97820.91;;;4.54;nan
19108;BME280;9686;48.832;9.126;2023-04-21T04:24:54;97827.75;;;4.52;nan
19108;BME280;9686;48.832;9.126;2023-04-21T04:27:19;97815.88;;;4.68;nan
19108;BME280;9686;48.832;9.126;2023-04-21T04:29:45;97819.53;;;4.86;nan
19108;BME280;9686;48.832;9.126;2023-04-21T04:32:10;97831.59;;;4.89;nan
19108;BME280;9686;48.832;9.126;2023-04-21T04:34:36;97817.06;;;4.97;nan
19108;BME280;9686;48.832;9.126;2023-04-21T04:37:02;97812.84;;;5.10;nan
19108;BME280;9686;48.832;9.126;2023-04-21T04:39:27;97805.78;;;4.90;nan
19108;BME280;9686;48.832;9.126;2023-04-21T04:41:53;97816.94;;;4.86;nan
19108;BME280;9686;48.832;9.126;2023-04-21T04:44:18;97816.13;;;4.90;nan
19108;BME280;9686;48.832;9.126;2023-04-21T04:46:43;97818.78;;;4.98;nan
19108;BME280;9686;48.832;9.126;2023-04-21T04:49:09;97811.09;;;5.03;nan
19108;BME280;9686;48.832;9.126;2023-04-21T04:51:35;97817.13;;;5.05;nan
19108;BME280;9686;48.832;9.126;2023-04-21T04:54:00;97820.56;;;5.04;nan
19108;BME280;9686;48.832;9.126;2023-04-21T04:56:26;97824.03;;;5.07;nan
19108;BME280;9686;48.832;9.126;2023-04-21T04:58:51;97831.78;;;5.09;nan
19108;BME280;9686;48.832;9.126;2023-04-21T05:01:16;97837.03;;;5.19;nan
19108;BME280;9686;48.832;9.126;2023-04-21T05:03:43;97839.59;;;5.15;nan
19108;BME280;9686;48.832;9.126;2023-04-21T05:06:08;97840.56;;;5.23;nan
19108;BME280;9686;48.832;9.126;2023-04-21T05:08:34;97838.06;;;5.34;nan
19108;BME280;9686;48.832;9.126;2023-04-21T05:10:59;97844.88;;;5.25;nan
19108;BME280;9686;48.832;9.126;2023-04-21T05:13:25;97847.47;;;5.25;nan
19108;BME280;9686;48.832;9.126;2023-04-21T05:15:56;97855.22;;;5.27;nan
19108;BME280;9686;48.832;9.126;2023-04-21T05:18:22;97848.41;;;5.37;nan
19108;BME280;9686;48.832;9.126;2023-04-21T05:20:47;97854.47;;;5.40;nan
19108;BME280;9686;48.832;9.126;2023-04-21T05:23:12;97857.94;;;5.42;nan
19108;BME280;9686;48.832;9.126;2023-04-21T05:25:38;97854.66;;;5.62;nan
19108;BME280;9686;48.832;9.126;2023-04-21T05:28:03;97851.22;;;5.67;nan
19108;BME280;9686;48.832;9.126;2023-04-21T05:30:28;97850.44;;;5.73;nan
19108;BME280;9686;48.832;9.126;2023-04-21T05:32:53;97853.06;;;5.82;nan
19108;BME280;9686;48.832;9.126;2023-04-21T05:35:19;97851.44;;;5.90;nan
19108;BME280;9686;48.832;9.126;2023-04-21T05:37:44;97856.63;;;5.95;nan
19108;BME280;9686;48.832;9.126;2023-04-21T05:40:09;97862.75;;;6.06;nan
19108;BME280;9686;48.832;9.126;2023-04-21T05:42:35;97871.38;;;6.08;nan
19108;BME280;9686;48.832;9.126;2023-04-21T05:45:00;97868.00;;;6.21;nan
19108;BME280;9686;48.832;9.126;2023-04-21T05:47:25;97870.59;;;6.21;nan
19108;BME280;9686;48.832;9.126;2023-04-21T05:49:51;97865.41;;;6.19;nan
19108;BME280;9686;48.832;9.126;2023-04-21T05:52:18;97868.97;;;6.40;nan
19108;BME280;9686;48.832;9.126;2023-04-21T05:54:43;97862.06;;;6.40;nan
19108;BME280;9686;48.832;9.126;2023-04-21T05:57:09;97850.00;;;6.45;nan
19108;BME280;9686;48.832;9.126;2023-04-21T05:59:34;97855.19;;;6.50;nan
19108;BME280;9686;48.832;9.126;2023-04-21T06:01:59;97852.59;;;6.48;nan
19108;BME280;9686;48.832;9.126;2023-04-21T06:04:25;97848.28;;;6.43;nan
19108;BME280;9686;48.832;9.126;2023-04-21T06:06:50;97848.25;;;6.41;nan
19108;BME280;9686;48.832;9.126;2023-04-21T06:09:15;97849.19;;;6.51;nan
19108;BME280;9686;48.832;9.126;2023-04-21T06:11:41;97843.16;;;6.57;nan
19108;BME280;9686;48.832;9.126;2023-04-21T06:14:06;97844.06;;;6.69;nan
19108;BME280;9686;48.832;9.126;2023-04-21T06:16:31;97843.19;;;6.69;nan
19108;BME280;9686;48.832;9.126;2023-04-21T06:18:58;97846.66;;;6.74;nan
19108;BME280;9686;48.832;9.126;2023-04-21T06:21:24;97844.97;;;6.85;nan
19108;BME280;9686;48.832;9.126;2023-04-21T06:23:49;97840.69;;;6.99;nan
19108;BME280;9686;48.832;9.126;2023-04-21T06:26:14;97832.94;;;7.21;nan
19108;BME280;9686;48.832;9.126;2023-04-21T06:28:39;97839.88;;;7.32;nan
19108;BME280;9686;48.832;9.126;2023-04-21T06:31:05;97840.75;;;7.40;nan
19108;BME280;9686;48.832;9.126;2023-04-21T06:33:31;97834.69;;;7.48;nan
19108;BME280;9686;48.832;9.126;2023-04-21T06:35:56;97839.88;;;7.51;nan
19108;BME280;9686;48.832;9.126;2023-04-21T06:38:22;97847.66;;;7.72;nan
19108;BME280;9686;48.832;9.126;2023-04-21T06:40:47;97839.88;;;7.84;nan
19108;BME280;9686;48.832;9.126;2023-04-21T06:43:13;97834.69;;;7.84;nan
19108;BME280;9686;48.832;9.126;2023-04-21T06:45:38;97835.56;;;7.83;nan
19108;BME280;9686;48.832;9.126;2023-04-21T06:48:03;97834.69;;;7.87;nan
19108;BME280;9686;48.832;9.126;2023-04-21T06:50:29;97849.34;;;7.97;nan
19108;BME280;9686;48.832;9.126;2023-04-21T06:52:54;97837.22;;;8.10;nan
19108;BME280;9686;48.832;9.126;2023-04-21T06:55:20;97835.47;;;8.18;nan
19108;BME280;9686;48.832;9.126;2023-04-21T06:57:45;97832.84;;;8.29;nan
19108;BME280;9686;48.832;9.126;2023-04-21T07:00:11;97831.16;;;8.34;nan
19108;BME280;9686;48.832;9.126;2023-04-21T07:02:37;97827.66;;;8.41;nan
19108;BME280;9686;48.832;9.126;2023-04-21T07:05:02;97829.38;;;8.39;nan
19108;BME280;9686;48.832;9.126;2023-04-21T07:07:28;97818.94;;;8.51;nan
19108;BME280;9686;48.832;9.126;2023-04-21T07:09:53;97818.97;;;8.44;nan
19108;BME280;9686;48.832;9.126;2023-04-21T07:12:18;97824.19;;;8.41;nan
19108;BME280;9686;48.832;9.126;2023-04-21T07:14:44;97824.13;;;8.53;nan
19108;BME280;9686;48.832;9.126;2023-04-21T07:17:09;97828.50;;;8.45;nan
19108;BME280;9686;48.832;9.126;2023-04-21T07:19:34;97820.69;;;8.48;nan
19108;BME280;9686;48.832;9.126;2023-04-21T07:22:00;97817.28;;;8.38;nan
19108;BME280;9686;48.832;9.126;2023-04-21T07:24:26;97821.56;;;8.47;nan
19108;BME280;9686;48.832;9.126;2023-04-21T07:26:51;97812.88;;;8.51;nan
19108;BME280;9686;48.832;9.126;2023-04-21T07:29:16;97818.91;;;8.57;nan
19108;BME280;9686;48.832;9.126;2023-04-21T07:31:42;97804.13;;;8.70;nan
19108;BME280;9686;48.832;9.126;2023-04-21T07:34:07;97804.94;;;8.78;nan
19108;BME280;9686;48.832;9.126;2023-04-21T07:36:32;97801.41;;;8.94;nan
19108;BME280;9686;48.832;9.126;2023-04-21T07:38:57;97800.44;;;9.06;nan
19108;BME280;9686;48.832;9.126;2023-04-21T07:41:23;97800.34;;;9.23;nan
19108;BME280;9686;48.832;9.126;2023-04-21T07:43:48;97796.53;;;9.65;nan
19108;BME280;9686;48.832;9.126;2023-04-21T07:46:13;97787.81;;;9.68;nan
19108;BME280;9686;48.832;9.126;2023-04-21T07:48:39;97787.78;;;9.72;nan
19108;BME280;9686;48.832;9.126;2023-04-21T07:51:05;97784.22;;;9.79;nan
19108;BME280;9686;48.832;9.126;2023-04-21T07:53:30;97780.69;;;9.86;nan
19108;BME280;9686;48.832;9.126;2023-04-21T07:55:55;97789.19;;;10.04;nan
19108;BME280;9686;48.832;9.126;2023-04-21T07:58:21;97776.94;;;10.15;nan
19108;BME280;9686;48.832;9.126;2023-04-21T08:00:47;97780.28;;;10.28;nan
19108;BME280;9686;48.832;9.126;2023-04-21T08:03:12;97769.38;;;10.67;nan
19108;BME280;9686;48.832;9.126;2023-04-21T08:05:38;97771.06;;;10.70;nan
19108;BME280;9686;48.832;9.126;2023-04-21T08:08:03;97772.66;;;10.78;nan
19108;BME280;9686;48.832;9.126;2023-04-21T08:10:29;97764.00;;;10.76;nan
19108;BME280;9686;48.832;9.126;2023-04-21T08:12:54;97763.78;;;10.93;nan
19108;BME280;9686;48.832;9.126;2023-04-21T08:15:20;97757.88;;;10.80;nan
19108;BME280;9686;48.832;9.126;2023-04-21T08:17:45;97757.75;;;10.88;nan
19108;BME280;9686;48.832;9.126;2023-04-21T08:20:11;97762.97;;;10.88;nan
19108;BME280;9686;48.832;9.126;2023-04-21T08:22:36;97763.94;;;10.81;nan
19108;BME280;9686;48.832;9.126;2023-04-21T08:25:02;97759.31;;;11.00;nan
19108;BME280;9686;48.832;9.126;2023-04-21T08:27:28;97753.97;;;11.09;nan
19108;BME280;9686;48.832;9.126;2023-04-21T08:29:53;97758.06;;;11.25;nan
19108;BME280;9686;48.832;9.126;2023-04-21T08:32:19;97750.38;;;11.16;nan
19108;BME280;9686;48.832;9.126;2023-04-21T08:34:48;97747.66;;;11.24;nan
19108;BME280;9686;48.832;9.126;2023-04-21T08:37:13;97744.69;;;11.45;nan
19108;BME280;9686;48.832;9.126;2023-04-21T08:39:39;97748.16;;;11.46;nan
19108;BME280;9686;48.832;9.126;2023-04-21T08:42:04;97748.69;;;11.64;nan
19108;BME280;9686;48.832;9.126;2023-04-21T08:44:30;97742.09;;;11.45;nan
19108;BME280;9686;48.832;9.126;2023-04-21T08:46:57;97738.69;;;11.38;nan
19108;BME280;9686;48.832;9.126;2023-04-21T08:49:28;97739.94;;;11.67;nan
19108;BME280;9686;48.832;9.126;2023-04-21T08:51:53;97743.53;;;11.61;nan
19108;BME280;9686;48.832;9.126;2023-04-21T08:54:19;97738.44;;;12.03;nan
19108;BME280;9686;48.832;9.126;2023-04-21T08:56:46;97740.00;;;12.12;nan
19108;BME280;9686;48.832;9.126;2023-04-21T08:59:12;97737.34;;;12.13;nan
19108;BME280;9686;48.832;9.126;2023-04-21T09:02:06;97739.97;;;12.13;nan
19108;BME280;9686;48.832;9.126;2023-04-21T09:04:32;97743.22;;;12.26;nan
19108;BME280;9686;48.832;9.126;2023-04-21T09:06:58;97739.94;;;12.15;nan
19108;BME280;9686;48.832;9.126;2023-04-21T09:09:23;97736.31;;;12.22;nan
19108;BME280;9686;48.832;9.126;2023-04-21T09:11:55;97738.47;;;12.43;nan
19108;BME280;9686;48.832;9.126;2023-04-21T09:14:30;97744.44;;;12.51;nan
19108;BME280;9686;48.832;9.126;2023-04-21T09:17:03;97741.00;;;12.48;nan
19108;BME280;9686;48.832;9.126;2023-04-21T09:19:29;97733.97;;;12.51;nan
19108;BME280;9686;48.832;9.126;2023-04-21T09:21:59;97731.19;;;12.59;nan
19108;BME280;9686;48.832;9.126;2023-04-21T09:24:24;97727.28;;;12.78;nan
19108;BME280;9686;48.832;9.126;2023-04-21T09:26:51;97720.66;;;12.99;nan
19108;BME280;9686;48.832;9.126;2023-04-21T09:29:20;97727.25;;;13.15;nan
19108;BME280;9686;48.832;9.126;2023-04-21T09:31:46;97709.84;;;13.14;nan
19108;BME280;9686;48.832;9.126;2023-04-21T09:34:25;97716.84;;;13.14;nan
19108;BME280;9686;48.832;9.126;2023-04-21T09:37:01;97710.69;;;13.15;nan
19108;BME280;9686;48.832;9.126;2023-04-21T09:39:30;97705.22;;;12.88;nan
19108;BME280;9686;48.832;9.126;2023-04-21T09:41:57;97715.22;;;13.08;nan
19108;BME280;9686;48.832;9.126;2023-04-21T09:44:24;97708.88;;;12.81;nan
19108;BME280;9686;48.832;9.126;2023-04-21T09:46:50;97713.00;;;12.91;nan
19108;BME280;9686;48.832;9.126;2023-04-21T09:49:21;97719.06;;;12.93;nan
19108;BME280;9686;48.832;9.126;2023-04-21T09:51:47;97716.16;;;13.06;nan
19108;BME280;9686;48.832;9.126;2023-04-21T09:54:17;97708.94;;;13.15;nan
19108;BME280;9686;48.832;9.126;2023-04-21T09:56:43;97711.09;;;13.35;nan
19108;BME280;9686;48.832;9.126;2023-04-21T09:59:16;97718.59;;;13.49;nan
19108;BME280;9686;48.832;9.126;2023-04-21T10:01:44;97706.81;;;13.33;nan
19108;BME280;9686;48.832;9.126;2023-04-21T10:04:11;97702.84;;;13.15;nan
19108;BME280;9686;48.832;9.126;2023-04-21T10:06:37;97697.81;;;13.43;nan
19108;BME280;9686;48.832;9.126;2023-04-21T10:09:04;97706.72;;;13.36;nan
19108;BME280;9686;48.832;9.126;2023-04-21T10:11:30;97701.84;;;13.56;nan
19108;BME280;9686;48.832;9.126;2023-04-21T10:13:58;97696.34;;;13.65;nan
19108;BME280;9686;48.832;9.126;2023-04-21T10:16:24;97686.34;;;13.81;nan
19108;BME280;9686;48.832;9.126;2023-04-21T10:18:50;97682.00;;;13.78;nan
19108;BME280;9686;48.832;9.126;2023-04-21T10:21:18;97679.63;;;14.02;nan
19108;BME280;9686;48.832;9.126;2023-04-21T10:23:47;97679.84;;;13.94;nan
19108;BME280;9686;48.832;9.126;2023-04-21T10:26:20;97674.88;;;13.85;nan
19108;BME280;9686;48.832;9.126;2023-04-21T10:34:15;97672.28;;;14.14;nan
19108;BME280;9686;48.832;9.126;2023-04-21T10:39:31;97668.91;;;14.40;nan
19108;BME280;9686;48.832;9.126;2023-04-21T10:42:21;97675.25;;;14.63;nan
19108;BME280;9686;48.832;9.126;2023-04-21T10:49:52;97671.94;;;14.84;nan
19108;BME280;9686;48.832;9.126;2023-04-21T10:52:18;97666.34;;;14.95;nan
19108;BME280;9686;48.832;9.126;2023-04-21T10:57:17;97659.28;;;14.97;nan
19108;BME280;9686;48.832;9.126;2023-04-21T10:59:43;97651.94;;;15.06;nan
19108;BME280;9686;48.832;9.126;2023-04-21T11:04:35;97656.66;;;15.23;nan
19108;BME280;9686;48.832;9.126;2023-04-21T11:07:14;97656.56;;;15.26;nan
19108;BME280;9686;48.832;9.126;2023-04-21T11:09:41;97658.03;;;15.60;nan
19108;BME280;9686;48.832;9.126;2023-04-21T11:12:09;97653.84;;;15.79;nan
19108;BME280;9686;48.832;9.126;2023-04-21T11:14:36;97657.13;;;15.86;nan
19108;BME280;9686;48.832;9.126;2023-04-21T11:17:04;97656.22;;;15.87;nan
19108;BME280;9686;48.832;9.126;2023-04-21T11:19:33;97648.13;;;15.93;nan
19108;BME280;9686;48.832;9.126;2023-04-21T11:22:02;97640.00;;;16.22;nan
19108;BME280;9686;48.832;9.126;2023-04-21T11:24:28;97646.56;;;16.34;nan
19108;BME280;9686;48.832;9.126;2023-04-21T11:26:53;97644.69;;;16.59;nan
19108;BME280;9686;48.832;9.126;2023-04-21T11:29:19;97635.72;;;16.87;nan
19108;BME280;9686;48.832;9.126;2023-04-21T11:31:45;97648.63;;;17.15;nan
19108;BME280;9686;48.832;9.126;2023-04-21T11:34:14;97639.31;;;17.28;nan
19108;BME280;9686;48.832;9.126;2023-04-21T11:36:42;97634.91;;;17.49;nan
19108;BME280;9686;48.832;9.126;2023-04-21T11:39:10;97627.47;;;17.79;nan
19108;BME280;9686;48.832;9.126;2023-04-21T11:41:42;97624.78;;;18.76;nan
19108;BME280;9686;48.832;9.126;2023-04-21T11:44:09;97619.56;;;19.80;nan
19108;BME280;9686;48.832;9.126;2023-04-21T11:46:35;97610.44;;;20.81;nan
19108;BME280;9686;48.832;9.126;2023-04-21T11:49:12;97613.47;;;21.51;nan
19108;BME280;9686;48.832;9.126;2023-04-21T11:51:38;97604.16;;;22.31;nan
19108;BME280;9686;48.832;9.126;2023-04-21T11:54:09;97606.06;;;22.29;nan
19108;BME280;9686;48.832;9.126;2023-04-21T11:56:36;97608.53;;;22.46;nan
19108;BME280;9686;48.832;9.126;2023-04-21T11:59:09;97610.28;;;23.41;nan
19108;BME280;9686;48.832;9.126;2023-04-21T12:01:45;97605.59;;;24.22;nan
19108;BME280;9686;48.832;9.126;2023-04-21T12:04:15;97595.63;;;24.86;nan
19108;BME280;9686;48.832;9.126;2023-04-21T12:06:41;97602.19;;;25.41;nan
19108;BME280;9686;48.832;9.126;2023-04-21T12:09:07;97604.50;;;25.69;nan
19108;BME280;9686;48.832;9.126;2023-04-21T12:11:33;97602.72;;;25.22;nan
19108;BME280;9686;48.832;9.126;2023-04-21T12:31:00;97591.84;;;24.03;nan
19108;BME280;9686;48.832;9.126;2023-04-21T12:33:25;97580.56;;;22.82;nan
19108;BME280;9686;48.832;9.126;2023-04-21T12:35:51;97579.00;;;21.51;nan
19108;BME280;9686;48.832;9.126;2023-04-21T12:38:16;97569.19;;;20.77;nan
19108;BME280;9686;48.832;9.126;2023-04-21T12:40:41;97568.91;;;20.19;nan
19108;BME280;9686;48.832;9.126;2023-04-21T12:43:07;97570.72;;;19.52;nan
19108;BME280;9686;48.832;9.126;2023-04-21T12:45:32;97567.75;;;19.24;nan
19108;BME280;9686;48.832;9.126;2023-04-21T12:47:58;97557.13;;;19.25;nan
19108;BME280;9686;48.832;9.126;2023-04-21T12:50:23;97554.88;;;19.18;nan
19108;BME280;9686;48.832;9.126;2023-04-21T12:52:49;97567.34;;;19.49;nan
19108;BME280;9686;48.832;9.126;2023-04-21T12:55:16;97559.75;;;19.42;nan
19108;BME280;9686;48.832;9.126;2023-04-21T12:57:41;97560.44;;;19.46;nan
19108;BME280;9686;48.832;9.126;2023-04-21T13:00:07;97555.22;;;19.45;nan
19108;BME280;9686;48.832;9.126;2023-04-21T13:02:36;97553.00;;;19.37;nan
19108;BME280;9686;48.832;9.126;2023-04-21T13:05:02;97552.38;;;19.32;nan
19108;BME280;9686;48.832;9.126;2023-04-21T13:07:29;97557.75;;;19.30;nan
19108;BME280;9686;48.832;9.126;2023-04-21T13:09:56;97558.13;;;19.40;nan
19108;BME280;9686;48.832;9.126;2023-04-21T13:12:21;97543.56;;;19.66;nan
19108;BME280;9686;48.832;9.126;2023-04-21T13:14:47;97542.72;;;19.65;nan
19108;BME280;9686;48.832;9.126;2023-04-21T13:17:14;97554.38;;;19.44;nan
19108;BME280;9686;48.832;9.126;2023-04-21T13:19:40;97545.22;;;19.34;nan
19108;BME280;9686;48.832;9.126;2023-04-21T13:22:05;97541.41;;;19.22;nan
19108;BME280;9686;48.832;9.126;2023-04-21T13:24:30;97533.28;;;19.27;nan
19108;BME280;9686;48.832;9.126;2023-04-21T13:26:56;97537.16;;;19.20;nan
19108;BME280;9686;48.832;9.126;2023-04-21T13:29:21;97536.97;;;19.23;nan
19108;BME280;9686;48.832;9.126;2023-04-21T13:31:47;97536.06;;;18.89;nan
19108;BME280;9686;48.832;9.126;2023-04-21T13:34:12;97531.72;;;18.88;nan
19108;BME280;9686;48.832;9.126;2023-04-21T13:36:37;97526.91;;;18.96;nan
19108;BME280;9686;48.832;9.126;2023-04-21T13:39:03;97525.03;;;19.16;nan
19108;BME280;9686;48.832;9.126;2023-04-21T13:41:29;97530.06;;;19.37;nan
19108;BME280;9686;48.832;9.126;2023-04-21T13:43:55;97525.47;;;19.24;nan
19108;BME280;9686;48.832;9.126;2023-04-21T13:46:20;97522.91;;;19.39;nan
19108;BME280;9686;48.832;9.126;2023-04-21T13:48:46;97523.94;;;19.20;nan
19108;BME280;9686;48.832;9.126;2023-04-21T13:51:12;97518.41;;;19.24;nan
19108;BME280;9686;48.832;9.126;2023-04-21T13:53:37;97517.44;;;19.42;nan
19108;BME280;9686;48.832;9.126;2023-04-21T13:56:03;97519.06;;;19.45;nan
19108;BME280;9686;48.832;9.126;2023-04-21T13:58:28;97523.50;;;19.62;nan
19108;BME280;9686;48.832;9.126;2023-04-21T14:00:55;97513.09;;;19.59;nan
19108;BME280;9686;48.832;9.126;2023-04-21T14:03:20;97508.41;;;19.64;nan
19108;BME280;9686;48.832;9.126;2023-04-21T14:05:46;97502.47;;;19.76;nan
19108;BME280;9686;48.832;9.126;2023-04-21T14:08:11;97500.75;;;19.75;nan
19108;BME280;9686;48.832;9.126;2023-04-21T14:10:37;97500.34;;;19.83;nan